createdAt,value
2023-05-19T00:00:10.616Z,11.42
2023-05-19T00:03:00.584Z,11.38
2023-05-19T00:05:30.641Z,11.36
2023-05-19T00:08:01.335Z,11.34
2023-05-19T00:10:31.922Z,11.32
2023-05-19T00:13:01.030Z,11.29
2023-05-19T00:15:29.886Z,11.26
2023-05-19T00:17:59.054Z,11.24
2023-05-19T00:20:27.483Z,11.20
2023-05-19T00:22:55.968Z,11.16
2023-05-19T00:25:24.410Z,11.11
2023-05-19T00:27:52.805Z,11.06
2023-05-19T00:30:22.922Z,11.01
2023-05-19T00:32:51.846Z,10.96
2023-05-19T00:35:20.471Z,10.93
2023-05-19T00:37:49.066Z,10.89
2023-05-19T00:40:17.680Z,10.85
2023-05-19T00:42:46.027Z,10.81
2023-05-19T00:45:14.533Z,10.78
2023-05-19T00:47:42.967Z,10.75
2023-05-19T00:50:11.403Z,10.73
2023-05-19T00:52:39.784Z,10.72
2023-05-19T00:55:09.846Z,10.70
2023-05-19T00:57:38.806Z,10.70
2023-05-19T01:00:08.406Z,10.69
2023-05-19T01:02:40.105Z,10.68
2023-05-19T01:05:09.422Z,10.68
2023-05-19T01:07:38.242Z,10.66
2023-05-19T01:10:07.262Z,10.67
2023-05-19T01:12:36.698Z,10.65
2023-05-19T01:15:06.680Z,10.66
2023-05-19T01:18:22.424Z,10.64
2023-05-19T01:21:03.784Z,10.64
2023-05-19T01:23:52.008Z,10.62
2023-05-19T01:26:55.272Z,10.62
2023-05-19T01:30:02.879Z,10.59
2023-05-19T01:32:33.714Z,10.57
2023-05-19T01:35:04.502Z,10.54
2023-05-19T01:37:34.275Z,10.53
2023-05-19T01:40:02.807Z,10.51
2023-05-19T01:42:37.403Z,10.50
2023-05-19T01:45:10.628Z,10.48
2023-05-19T01:47:43.955Z,10.47
2023-05-19T01:50:12.497Z,10.45
2023-05-19T01:52:40.998Z,10.43
2023-05-19T01:55:09.919Z,10.41
2023-05-19T01:58:33.662Z,10.39
2023-05-19T02:01:31.410Z,10.37
2023-05-19T02:04:19.682Z,10.35
2023-05-19T02:07:13.497Z,10.31
2023-05-19T02:10:05.832Z,10.29
2023-05-19T02:12:40.761Z,10.26
2023-05-19T02:15:17.387Z,10.25
2023-05-19T02:17:50.784Z,10.25
2023-05-19T02:20:19.452Z,10.23
2023-05-19T02:22:48.661Z,10.23
2023-05-19T02:25:17.132Z,10.22
2023-05-19T02:27:45.814Z,10.22
2023-05-19T02:30:14.321Z,10.22
2023-05-19T02:32:42.756Z,10.22
2023-05-19T02:35:11.432Z,10.22
2023-05-19T02:37:39.976Z,10.23
2023-05-19T02:40:09.302Z,10.22
2023-05-19T02:42:37.908Z,10.22
2023-05-19T02:45:07.216Z,10.24
2023-05-19T02:47:38.768Z,10.25
2023-05-19T02:50:08.556Z,10.25
2023-05-19T02:52:36.978Z,10.26
2023-05-19T02:55:06.088Z,10.26
2023-05-19T02:57:35.049Z,10.27
2023-05-19T03:00:04.686Z,10.28
2023-05-19T03:02:34.258Z,10.29
2023-05-19T03:05:03.845Z,10.30
2023-05-19T03:07:33.844Z,10.31
2023-05-19T03:10:06.657Z,10.32
2023-05-19T03:12:35.278Z,10.33
2023-05-19T03:15:04.099Z,10.33
2023-05-19T03:17:34.453Z,10.34
2023-05-19T03:20:04.111Z,10.37
2023-05-19T03:22:33.088Z,10.39
2023-05-19T03:25:01.577Z,10.42
2023-05-19T03:27:30.115Z,10.45
2023-05-19T03:29:58.483Z,10.47
2023-05-19T03:32:27.033Z,10.49
2023-05-19T03:34:55.446Z,10.51
2023-05-19T03:37:23.855Z,10.54
2023-05-19T03:39:52.270Z,10.57
2023-05-19T03:42:20.738Z,10.59
2023-05-19T03:44:49.190Z,10.62
2023-05-19T03:47:17.779Z,10.66
2023-05-19T03:49:46.291Z,10.70
2023-05-19T03:52:15.727Z,10.73
2023-05-19T03:54:45.138Z,10.76
2023-05-19T03:57:14.917Z,10.79
2023-05-19T03:59:44.024Z,10.83
2023-05-19T04:02:12.545Z,10.85
2023-05-19T04:04:41.407Z,10.88
2023-05-19T04:07:09.812Z,10.92
2023-05-19T04:09:39.008Z,10.95
2023-05-19T04:12:07.918Z,10.99
2023-05-19T04:14:36.454Z,11.02
2023-05-19T04:17:05.515Z,11.05
2023-05-19T04:19:33.855Z,11.08
2023-05-19T04:22:02.182Z,11.12
2023-05-19T04:24:30.604Z,11.17
2023-05-19T04:27:02.719Z,11.22
2023-05-19T04:29:32.669Z,11.28
2023-05-19T04:32:01.167Z,11.34
2023-05-19T04:34:29.554Z,11.40
2023-05-19T04:36:57.944Z,11.47
2023-05-19T04:39:26.325Z,11.55
2023-05-19T04:41:54.756Z,11.60
2023-05-19T04:44:23.123Z,11.66
2023-05-19T04:46:54.336Z,11.71
2023-05-19T04:49:24.433Z,11.76
2023-05-19T04:51:55.586Z,11.79
2023-05-19T04:54:24.282Z,11.84
2023-05-19T04:56:52.643Z,11.87
2023-05-19T04:59:22.536Z,11.91
2023-05-19T05:01:50.968Z,11.97
2023-05-19T05:04:21.793Z,12.03
2023-05-19T05:06:50.677Z,12.10
2023-05-19T05:09:20.013Z,12.16
2023-05-19T05:11:48.822Z,12.21
2023-05-19T05:14:17.598Z,12.26
2023-05-19T05:16:46.525Z,12.30
2023-05-19T05:19:15.460Z,12.34
2023-05-19T05:21:44.346Z,12.38
2023-05-19T05:24:13.671Z,12.43
2023-05-19T05:26:42.974Z,12.45
2023-05-19T05:29:11.381Z,12.46
2023-05-19T05:31:39.793Z,12.48
2023-05-19T05:34:08.335Z,12.52
2023-05-19T05:36:36.934Z,12.56
2023-05-19T05:39:05.696Z,12.63
2023-05-19T05:41:36.969Z,12.68
2023-05-19T05:44:05.512Z,12.72
2023-05-19T05:46:34.023Z,12.73
2023-05-19T05:49:02.933Z,12.76
2023-05-19T05:51:33.004Z,12.81
2023-05-19T05:54:02.679Z,12.85
2023-05-19T05:56:33.752Z,12.88
2023-05-19T05:59:02.855Z,12.94
2023-05-19T06:01:33.642Z,13.00
2023-05-19T06:04:03.436Z,13.06
2023-05-19T06:06:32.736Z,13.12
2023-05-19T06:09:01.206Z,13.16
2023-05-19T06:11:29.998Z,13.18
2023-05-19T06:16:42.978Z,13.23
2023-05-19T06:19:11.957Z,13.23
2023-05-19T06:21:43.035Z,13.22
2023-05-19T06:24:12.201Z,13.20
2023-05-19T06:27:50.089Z,13.24
2023-05-19T06:30:18.554Z,13.21
2023-05-19T06:32:47.036Z,13.19
2023-05-19T06:35:15.576Z,13.19
2023-05-19T06:37:43.949Z,13.20
2023-05-19T06:40:13.362Z,13.21
2023-05-19T06:42:41.720Z,13.24
2023-05-19T06:45:10.866Z,13.27
2023-05-19T06:47:43.541Z,13.28
2023-05-19T06:50:11.907Z,13.26
2023-05-19T06:52:41.065Z,13.24
2023-05-19T06:55:09.879Z,13.24
2023-05-19T06:57:39.944Z,13.23
2023-05-19T07:00:12.610Z,13.23
2023-05-19T07:02:42.887Z,13.22
2023-05-19T07:05:11.464Z,13.21
2023-05-19T07:07:42.656Z,13.18
2023-05-19T07:10:11.669Z,13.15
2023-05-19T07:12:40.091Z,13.14
2023-05-19T07:15:08.981Z,13.14
2023-05-19T07:17:37.732Z,13.17
2023-05-19T07:29:25.732Z,13.45
2023-05-19T07:31:57.866Z,13.51
2023-05-19T07:34:26.555Z,13.57
2023-05-19T07:36:55.171Z,13.63
2023-05-19T07:39:35.820Z,13.68
2023-05-19T07:42:04.902Z,13.75
2023-05-19T07:44:34.611Z,13.80
2023-05-19T07:47:03.173Z,13.82
2023-05-19T07:49:31.713Z,13.80
2023-05-19T07:52:00.127Z,13.77
2023-05-19T07:54:28.518Z,13.74
2023-05-19T07:56:56.918Z,13.72
2023-05-19T07:59:25.265Z,13.70
2023-05-19T08:01:53.671Z,13.71
2023-05-19T08:04:22.115Z,13.73
2023-05-19T08:06:55.782Z,13.77
2023-05-19T08:09:24.145Z,13.82
2023-05-19T08:11:52.525Z,13.92
2023-05-19T08:14:22.884Z,14.02
2023-05-19T08:16:51.828Z,14.11
2023-05-19T08:19:20.880Z,14.22
2023-05-19T08:21:49.724Z,14.32
2023-05-19T08:24:18.106Z,14.39
2023-05-19T08:26:47.061Z,14.47
2023-05-19T08:29:15.647Z,14.57
2023-05-19T08:31:45.157Z,14.70
2023-05-19T08:34:15.974Z,14.85
2023-05-19T08:36:45.414Z,15.04
2023-05-19T08:39:16.223Z,15.24
2023-05-19T08:41:44.972Z,15.43
2023-05-19T08:44:13.407Z,15.60
2023-05-19T08:46:42.148Z,15.80
2023-05-19T08:49:14.079Z,15.99
2023-05-19T08:51:58.648Z,16.13
2023-05-19T08:54:37.374Z,16.25
2023-05-19T08:57:06.852Z,16.36
2023-05-19T08:59:35.320Z,16.43
2023-05-19T09:02:04.960Z,16.50
2023-05-19T09:04:33.957Z,16.62
2023-05-19T09:07:04.167Z,16.74
2023-05-19T09:09:32.733Z,16.86
2023-05-19T09:12:01.313Z,16.95
2023-05-19T09:14:30.849Z,17.02
2023-05-19T09:16:59.380Z,17.13
2023-05-19T09:19:31.327Z,17.25
2023-05-19T09:22:03.483Z,17.37
2023-05-19T09:24:33.846Z,17.47
2023-05-19T09:27:02.301Z,17.54
2023-05-19T09:29:31.114Z,17.57
2023-05-19T09:32:05.869Z,17.59
2023-05-19T09:34:34.390Z,17.58
2023-05-19T09:37:02.743Z,17.59
2023-05-19T09:39:34.774Z,17.57
2023-05-19T09:42:05.498Z,17.55
2023-05-19T09:53:46.470Z,17.33
2023-05-19T09:56:15.275Z,17.36
2023-05-19T09:58:43.874Z,17.36
2023-05-19T10:01:12.714Z,17.32
2023-05-19T10:03:42.616Z,17.29
2023-05-19T10:06:11.701Z,17.33
2023-05-19T10:08:42.625Z,17.32
2023-05-19T10:11:12.183Z,17.24
2023-05-19T10:13:41.318Z,17.15
2023-05-19T10:16:11.066Z,17.08
2023-05-19T10:18:40.254Z,17.03
2023-05-19T10:21:09.601Z,17.02
2023-05-19T10:23:38.723Z,17.01
2023-05-19T10:26:09.261Z,17.00
2023-05-19T10:28:41.070Z,16.98
2023-05-19T10:31:17.070Z,16.97
2023-05-19T10:34:32.689Z,16.94
2023-05-19T10:37:28.555Z,16.88
2023-05-19T10:40:13.719Z,16.83
2023-05-19T10:43:11.805Z,16.83
2023-05-19T10:45:54.976Z,16.78
2023-05-19T10:48:23.489Z,16.73
2023-05-19T10:50:56.474Z,16.68
2023-05-19T10:53:32.705Z,16.63
2023-05-19T10:56:07.036Z,16.57
2023-05-19T10:58:49.331Z,16.49
2023-05-19T11:01:20.879Z,16.50
2023-05-19T11:03:59.685Z,16.58
2023-05-19T11:06:34.216Z,16.75
2023-05-19T11:09:22.512Z,16.87
2023-05-19T11:11:55.219Z,16.99
2023-05-19T11:14:27.629Z,17.03
2023-05-19T11:17:00.297Z,17.06
2023-05-19T11:19:31.220Z,17.10
2023-05-19T11:22:13.752Z,17.13
2023-05-19T11:24:50.083Z,17.16
2023-05-19T11:27:33.638Z,17.17
2023-05-19T11:30:09.392Z,17.19
2023-05-19T11:32:42.728Z,17.17
2023-05-19T11:35:11.689Z,17.14
2023-05-19T11:37:43.625Z,17.11
2023-05-19T11:40:13.754Z,17.08
2023-05-19T11:42:42.287Z,17.06
2023-05-19T11:45:10.819Z,17.05
2023-05-19T11:47:59.674Z,17.07
2023-05-19T11:50:27.748Z,17.09
2023-05-19T11:52:56.997Z,17.07
2023-05-19T11:55:25.420Z,17.03
2023-05-19T12:00:39.196Z,16.91
2023-05-19T12:06:19.855Z,16.92
2023-05-19T12:08:50.521Z,16.90
2023-05-19T12:11:20.133Z,16.91
2023-05-19T12:13:50.867Z,16.89
2023-05-19T12:16:23.031Z,16.86
2023-05-19T12:18:51.495Z,16.80
2023-05-19T12:21:19.960Z,16.71
2023-05-19T12:23:48.468Z,16.61
2023-05-19T12:26:19.446Z,16.55
2023-05-19T12:28:51.004Z,16.53
2023-05-19T12:31:23.579Z,16.57
2023-05-19T12:33:52.441Z,16.61
2023-05-19T12:36:23.555Z,16.67
2023-05-19T12:38:55.694Z,16.74
2023-05-19T12:41:27.440Z,16.80
2023-05-19T12:43:55.951Z,16.85
2023-05-19T12:46:24.417Z,16.90
2023-05-19T12:48:53.488Z,16.93
2023-05-19T12:51:21.907Z,16.94
2023-05-19T12:53:50.887Z,16.96
2023-05-19T12:56:19.464Z,16.94
2023-05-19T12:58:47.858Z,16.92
2023-05-19T13:01:18.615Z,16.92
2023-05-19T13:03:47.475Z,16.90
2023-05-19T13:06:16.239Z,16.83
2023-05-19T13:08:47.394Z,16.76
2023-05-19T13:11:15.816Z,16.68
2023-05-19T13:13:47.335Z,16.61
2023-05-19T13:16:15.982Z,16.53
2023-05-19T13:18:44.661Z,16.44
2023-05-19T13:21:13.656Z,16.42
2023-05-19T13:23:42.008Z,16.44
2023-05-19T13:26:12.904Z,16.50
2023-05-19T13:28:41.506Z,16.57
2023-05-19T13:31:10.088Z,16.66
2023-05-19T13:33:38.591Z,16.79
2023-05-19T13:36:07.136Z,16.91
2023-05-19T13:38:35.566Z,17.02
2023-05-19T13:41:04.168Z,17.12
2023-05-19T13:43:32.514Z,17.23
2023-05-19T13:46:01.141Z,17.34
2023-05-19T13:48:29.721Z,17.44
2023-05-19T13:50:58.197Z,17.51
2023-05-19T13:53:27.555Z,17.59
2023-05-19T13:55:56.302Z,17.64
2023-05-19T13:58:24.687Z,17.67
2023-05-19T14:00:54.814Z,17.66
2023-05-19T14:03:24.981Z,17.69
2023-05-19T14:05:53.630Z,17.69
2023-05-19T14:08:22.927Z,17.63
2023-05-19T14:10:51.968Z,17.63
2023-05-19T14:13:32.323Z,17.62
2023-05-19T14:16:03.054Z,17.61
2023-05-19T14:18:32.482Z,17.58
2023-05-19T14:21:00.983Z,17.57
2023-05-19T14:23:30.331Z,17.53
2023-05-19T14:26:31.300Z,17.52
2023-05-19T14:29:00.162Z,17.57
2023-05-19T14:31:28.612Z,17.59
2023-05-19T14:33:57.154Z,17.65
2023-05-19T14:36:25.756Z,17.68
2023-05-19T14:38:54.101Z,17.67
2023-05-19T14:41:22.729Z,17.64
2023-05-19T14:43:51.187Z,17.62
2023-05-19T14:46:19.649Z,17.59
2023-05-19T14:48:48.193Z,17.53
2023-05-19T14:51:16.626Z,17.53
2023-05-19T14:53:45.047Z,17.51
2023-05-19T14:56:13.419Z,17.50
2023-05-19T14:58:41.888Z,17.46
2023-05-19T15:01:10.339Z,17.44
2023-05-19T15:03:38.766Z,17.44
2023-05-19T15:06:10.986Z,17.45
2023-05-19T15:08:40.834Z,17.45
2023-05-19T15:11:09.257Z,17.44
2023-05-19T15:13:37.686Z,17.44
2023-05-19T15:16:16.771Z,17.41
2023-05-19T15:18:46.629Z,17.36
2023-05-19T15:21:15.780Z,17.30
2023-05-19T15:23:44.794Z,17.25
2023-05-19T15:26:13.355Z,17.18
2023-05-19T15:28:41.846Z,17.12
2023-05-19T15:31:10.618Z,17.09
2023-05-19T15:33:39.120Z,17.07
2023-05-19T15:36:07.543Z,17.03
2023-05-19T15:38:36.919Z,16.96
2023-05-19T15:41:08.504Z,16.90
2023-05-19T15:43:37.039Z,16.81
2023-05-19T15:46:05.646Z,16.74
2023-05-19T15:48:34.399Z,16.69
2023-05-19T15:51:02.916Z,16.60
2023-05-19T15:53:31.394Z,16.53
2023-05-19T15:55:59.797Z,16.50
2023-05-19T15:58:28.217Z,16.46
2023-05-19T16:00:56.650Z,16.41
2023-05-19T16:03:25.515Z,16.37
2023-05-19T16:05:54.348Z,16.35
2023-05-19T16:08:22.893Z,16.33
2023-05-19T16:10:51.257Z,16.32
2023-05-19T16:13:19.741Z,16.28
2023-05-19T16:15:48.665Z,16.27
2023-05-19T16:18:17.422Z,16.27
2023-05-19T16:20:46.371Z,16.22
2023-05-19T16:23:14.745Z,16.19
2023-05-19T16:25:43.128Z,16.15
2023-05-19T16:28:11.481Z,16.12
2023-05-19T16:30:40.394Z,16.07
2023-05-19T16:33:08.981Z,16.00
2023-05-19T16:35:37.552Z,15.96
2023-05-19T16:38:06.093Z,15.94
2023-05-19T16:40:35.430Z,15.91
2023-05-19T16:43:04.742Z,15.89
2023-05-19T16:45:33.174Z,15.87
2023-05-19T16:48:01.736Z,15.85
2023-05-19T16:50:30.821Z,15.81
2023-05-19T16:52:59.232Z,15.79
2023-05-19T16:55:27.681Z,15.77
2023-05-19T16:57:56.333Z,15.74
2023-05-19T17:00:24.787Z,15.70
2023-05-19T17:02:53.268Z,15.67
2023-05-19T17:05:21.609Z,15.64
2023-05-19T17:07:50.040Z,15.63
2023-05-19T17:10:18.717Z,15.61
2023-05-19T17:12:47.086Z,15.58
2023-05-19T17:15:15.794Z,15.55
2023-05-19T17:17:44.247Z,15.53
2023-05-19T17:20:13.612Z,15.51
2023-05-19T17:22:42.165Z,15.50
2023-05-19T17:25:10.957Z,15.49
2023-05-19T17:27:39.437Z,15.46
2023-05-19T17:30:09.367Z,15.44
2023-05-19T17:32:39.633Z,15.42
2023-05-19T17:35:08.609Z,15.38
2023-05-19T17:37:37.291Z,15.34
2023-05-19T17:40:08.613Z,15.31
2023-05-19T17:42:36.967Z,15.29
2023-05-19T17:45:07.642Z,15.28
2023-05-19T17:47:36.107Z,15.24
2023-05-19T17:50:05.066Z,15.21
2023-05-19T17:52:34.201Z,15.20
2023-05-19T17:55:03.040Z,15.18
2023-05-19T17:57:35.554Z,15.16
2023-05-19T18:00:05.597Z,15.14
2023-05-19T18:02:34.703Z,15.11
2023-05-19T18:05:04.212Z,15.07
2023-05-19T18:07:37.687Z,15.03
2023-05-19T18:10:08.236Z,14.99
2023-05-19T18:12:36.665Z,14.96
2023-05-19T18:15:06.074Z,14.93
2023-05-19T18:17:34.800Z,14.91
2023-05-19T18:20:03.488Z,14.90
2023-05-19T18:22:31.948Z,14.88
2023-05-19T18:25:01.066Z,14.87
2023-05-19T18:27:29.857Z,14.83
2023-05-19T18:29:58.338Z,14.81
2023-05-19T18:32:26.815Z,14.77
2023-05-19T18:34:55.383Z,14.75
2023-05-19T18:37:23.806Z,14.72
2023-05-19T18:39:52.713Z,14.68
2023-05-19T18:42:21.796Z,14.64
2023-05-19T18:44:50.806Z,14.62
2023-05-19T18:47:20.138Z,14.60
2023-05-19T18:50:14.419Z,14.58
2023-05-19T18:52:42.869Z,14.54
2023-05-19T18:55:11.444Z,14.50
2023-05-19T18:57:39.865Z,14.47
2023-05-19T19:00:09.239Z,14.45
2023-05-19T19:02:37.910Z,14.43
2023-05-19T19:05:09.746Z,14.39
2023-05-19T19:07:42.147Z,14.35
2023-05-19T19:10:22.171Z,14.33
2023-05-19T19:12:50.751Z,14.31
2023-05-19T19:15:19.104Z,14.28
2023-05-19T19:17:47.521Z,14.27
2023-05-19T19:20:16.073Z,14.25
2023-05-19T19:22:44.553Z,14.23
2023-05-19T19:25:13.018Z,14.22
2023-05-19T19:27:41.530Z,14.20
2023-05-19T19:30:10.140Z,14.20
2023-05-19T19:32:38.577Z,14.18
2023-05-19T19:35:07.599Z,14.17
2023-05-19T19:37:36.075Z,14.14
2023-05-19T19:40:05.429Z,14.12
2023-05-19T19:42:34.125Z,14.10
2023-05-19T19:45:02.668Z,14.09
2023-05-19T19:47:31.449Z,14.08
2023-05-19T19:50:01.188Z,14.05
2023-05-19T19:52:29.649Z,14.04
2023-05-19T19:54:58.076Z,14.02
2023-05-19T19:57:27.122Z,14.02
2023-05-19T19:59:57.455Z,14.01
2023-05-19T20:02:26.583Z,13.99
2023-05-19T20:04:55.185Z,13.97
2023-05-19T20:07:23.614Z,13.95
2023-05-19T20:09:53.007Z,13.94
2023-05-19T20:12:22.534Z,13.93
2023-05-19T20:14:54.039Z,13.90
2023-05-19T20:17:22.576Z,13.88
2023-05-19T20:19:51.167Z,13.87
2023-05-19T20:22:19.574Z,13.86
2023-05-19T20:24:47.986Z,13.85
2023-05-19T20:27:16.453Z,13.82
2023-05-19T20:29:47.037Z,13.81
2023-05-19T20:32:15.692Z,13.80
2023-05-19T20:34:44.186Z,13.79
2023-05-19T20:37:13.831Z,13.79
2023-05-19T20:39:42.204Z,13.78
2023-05-19T20:42:11.379Z,13.78
2023-05-19T20:44:39.783Z,13.76
2023-05-19T20:47:08.550Z,13.76
2023-05-19T20:49:37.012Z,13.74
2023-05-19T20:52:05.686Z,13.72
2023-05-19T20:54:34.096Z,13.70
2023-05-19T20:57:06.511Z,13.68
2023-05-19T20:59:38.466Z,13.68
2023-05-19T21:02:07.688Z,13.67
2023-05-19T21:04:37.962Z,13.66
2023-05-19T21:07:06.469Z,13.66
2023-05-19T21:09:34.931Z,13.65
2023-05-19T21:12:03.631Z,13.64
2023-05-19T21:14:32.080Z,13.62
2023-05-19T21:17:00.747Z,13.61
2023-05-19T21:19:29.265Z,13.59
2023-05-19T21:21:57.915Z,13.58
2023-05-19T21:24:26.608Z,13.57
2023-05-19T21:26:55.082Z,13.56
2023-05-19T21:29:23.658Z,13.54
2023-05-19T21:31:52.712Z,13.53
2023-05-19T21:34:21.074Z,13.51
2023-05-19T21:36:52.115Z,13.50
2023-05-19T21:39:20.539Z,13.48
2023-05-19T21:41:49.013Z,13.48
2023-05-19T21:44:17.854Z,13.48
2023-05-19T21:46:46.328Z,13.50
2023-05-19T21:49:14.869Z,13.51
2023-05-19T21:51:43.298Z,13.52
2023-05-19T21:54:11.693Z,13.51
2023-05-19T21:56:40.308Z,13.52
2023-05-19T21:59:09.211Z,13.53
2023-05-19T22:01:38.009Z,13.54
2023-05-19T22:04:06.624Z,13.54
2023-05-19T22:06:35.079Z,13.55
2023-05-19T22:09:04.364Z,13.55
2023-05-19T22:11:32.778Z,13.55
2023-05-19T22:14:01.243Z,13.57
2023-05-19T22:16:30.829Z,13.57
2023-05-19T22:18:59.259Z,13.57
2023-05-19T22:21:27.744Z,13.57
2023-05-19T22:23:56.237Z,13.57
2023-05-19T22:26:24.682Z,13.57
2023-05-19T22:28:53.501Z,13.57
2023-05-19T22:31:22.157Z,13.58
2023-05-19T22:33:50.672Z,13.58
2023-05-19T22:36:19.084Z,13.57
2023-05-19T22:38:47.764Z,13.57
2023-05-19T22:41:16.158Z,13.57
2023-05-19T22:43:44.559Z,13.57
2023-05-19T22:46:13.004Z,13.58
2023-05-19T22:48:41.644Z,13.58
2023-05-19T22:51:10.105Z,13.57
2023-05-19T22:53:38.473Z,13.55
2023-05-19T22:56:07.395Z,13.55
2023-05-19T22:58:35.952Z,13.55
2023-05-19T23:01:04.408Z,13.54
2023-05-19T23:03:32.814Z,13.53
2023-05-19T23:06:01.402Z,13.52
2023-05-19T23:08:29.765Z,13.52
2023-05-19T23:11:02.283Z,13.51
2023-05-19T23:13:31.488Z,13.50
2023-05-19T23:16:00.160Z,13.49
2023-05-19T23:18:28.531Z,13.51
2023-05-19T23:20:56.876Z,13.51
2023-05-19T23:23:25.682Z,13.51
2023-05-19T23:25:54.872Z,13.51
2023-05-19T23:28:23.223Z,13.52
2023-05-19T23:30:54.256Z,13.52
2023-05-19T23:33:23.034Z,13.52
2023-05-19T23:35:51.548Z,13.52
2023-05-19T23:38:19.879Z,13.52
2023-05-19T23:40:48.310Z,13.52
2023-05-19T23:43:16.659Z,13.52
2023-05-19T23:45:45.136Z,13.52
2023-05-19T23:48:13.631Z,13.53
2023-05-19T23:50:42.116Z,13.52
2023-05-19T23:53:10.516Z,13.52
2023-05-19T23:55:38.862Z,13.52
2023-05-19T23:58:07.479Z,13.52
